sensor_id;sensor_type;location;lat;lon;timestamp;P1;durP1;ratioP1;P2;durP2;ratioP2
7573;SDS011;3828;48.922;9.116;2023-08-07T00:01:48;1.00;;;1.00;;
7573;SDS011;3828;48.922;9.116;2023-08-07T00:04:15;0.93;;;0.93;;
7573;SDS011;3828;48.922;9.116;2023-08-07T00:06:44;1.00;;;1.00;;
7573;SDS011;3828;48.922;9.116;2023-08-07T00:09:10;1.00;;;1.00;;
7573;SDS011;3828;48.922;9.116;2023-08-07T00:11:37;0.90;;;0.90;;
7573;SDS011;3828;48.922;9.116;2023-08-07T00:14:05;1.03;;;1.03;;
7573;SDS011;3828;48.922;9.116;2023-08-07T00:16:31;1.00;;;1.00;;
7573;SDS011;3828;48.922;9.116;2023-08-07T00:18:59;1.00;;;1.00;;
7573;SDS011;3828;48.922;9.116;2023-08-07T00:21:26;1.10;;;1.10;;
7573;SDS011;3828;48.922;9.116;2023-08-07T00:23:54;0.90;;;0.90;;
7573;SDS011;3828;48.922;9.116;2023-08-07T00:26:21;0.90;;;0.90;;
7573;SDS011;3828;48.922;9.116;2023-08-07T00:28:48;0.90;;;0.90;;
7573;SDS011;3828;48.922;9.116;2023-08-07T00:31:15;0.90;;;0.90;;
7573;SDS011;3828;48.922;9.116;2023-08-07T00:33:42;1.00;;;1.00;;
7573;SDS011;3828;48.922;9.116;2023-08-07T00:36:09;1.00;;;1.00;;
7573;SDS011;3828;48.922;9.116;2023-08-07T00:38:36;1.00;;;1.00;;
7573;SDS011;3828;48.922;9.116;2023-08-07T00:41:05;1.00;;;1.00;;
7573;SDS011;3828;48.922;9.116;2023-08-07T00:43:32;1.00;;;1.00;;
7573;SDS011;3828;48.922;9.116;2023-08-07T00:45:59;0.90;;;0.90;;
7573;SDS011;3828;48.922;9.116;2023-08-07T00:48:27;0.90;;;0.90;;
7573;SDS011;3828;48.922;9.116;2023-08-07T00:50:55;0.90;;;0.90;;
7573;SDS011;3828;48.922;9.116;2023-08-07T00:53:22;1.00;;;1.00;;
7573;SDS011;3828;48.922;9.116;2023-08-07T00:55:49;1.00;;;1.00;;
7573;SDS011;3828;48.922;9.116;2023-08-07T00:58:18;0.90;;;0.90;;
7573;SDS011;3828;48.922;9.116;2023-08-07T01:00:45;1.10;;;1.10;;
7573;SDS011;3828;48.922;9.116;2023-08-07T01:03:12;1.00;;;1.00;;
7573;SDS011;3828;48.922;9.116;2023-08-07T01:05:40;1.00;;;1.00;;
7573;SDS011;3828;48.922;9.116;2023-08-07T01:08:07;0.90;;;0.90;;
7573;SDS011;3828;48.922;9.116;2023-08-07T01:10:35;0.90;;;0.90;;
7573;SDS011;3828;48.922;9.116;2023-08-07T01:13:14;0.90;;;0.90;;
7573;SDS011;3828;48.922;9.116;2023-08-07T01:15:49;0.80;;;0.80;;
7573;SDS011;3828;48.922;9.116;2023-08-07T01:18:21;0.80;;;0.80;;
7573;SDS011;3828;48.922;9.116;2023-08-07T01:20:49;0.87;;;0.87;;
7573;SDS011;3828;48.922;9.116;2023-08-07T01:23:17;0.90;;;0.90;;
7573;SDS011;3828;48.922;9.116;2023-08-07T01:25:44;1.10;;;1.10;;
7573;SDS011;3828;48.922;9.116;2023-08-07T01:28:12;1.20;;;1.20;;
7573;SDS011;3828;48.922;9.116;2023-08-07T01:30:44;1.03;;;1.03;;
7573;SDS011;3828;48.922;9.116;2023-08-07T01:33:16;0.90;;;0.90;;
7573;SDS011;3828;48.922;9.116;2023-08-07T01:35:51;0.93;;;0.93;;
7573;SDS011;3828;48.922;9.116;2023-08-07T01:38:21;0.90;;;0.90;;
7573;SDS011;3828;48.922;9.116;2023-08-07T01:40:50;0.80;;;0.80;;
7573;SDS011;3828;48.922;9.116;2023-08-07T01:43:18;1.00;;;1.00;;
7573;SDS011;3828;48.922;9.116;2023-08-07T01:45:46;0.90;;;0.90;;
7573;SDS011;3828;48.922;9.116;2023-08-07T01:48:13;1.20;;;1.20;;
7573;SDS011;3828;48.922;9.116;2023-08-07T01:50:40;1.00;;;1.00;;
7573;SDS011;3828;48.922;9.116;2023-08-07T01:53:07;1.20;;;1.20;;
7573;SDS011;3828;48.922;9.116;2023-08-07T01:55:35;1.00;;;1.00;;
7573;SDS011;3828;48.922;9.116;2023-08-07T01:58:02;1.10;;;1.10;;
7573;SDS011;3828;48.922;9.116;2023-08-07T02:00:29;1.00;;;1.00;;
7573;SDS011;3828;48.922;9.116;2023-08-07T02:02:57;1.03;;;1.03;;
7573;SDS011;3828;48.922;9.116;2023-08-07T02:05:24;0.93;;;0.93;;
7573;SDS011;3828;48.922;9.116;2023-08-07T02:07:51;0.90;;;0.90;;
7573;SDS011;3828;48.922;9.116;2023-08-07T02:10:21;1.30;;;1.30;;
7573;SDS011;3828;48.922;9.116;2023-08-07T02:12:50;1.00;;;1.00;;
7573;SDS011;3828;48.922;9.116;2023-08-07T02:15:17;1.53;;;1.53;;
7573;SDS011;3828;48.922;9.116;2023-08-07T02:17:44;1.00;;;1.00;;
7573;SDS011;3828;48.922;9.116;2023-08-07T02:20:11;1.00;;;1.00;;
7573;SDS011;3828;48.922;9.116;2023-08-07T02:22:38;0.90;;;0.90;;
7573;SDS011;3828;48.922;9.116;2023-08-07T02:25:06;1.00;;;1.00;;
7573;SDS011;3828;48.922;9.116;2023-08-07T02:27:33;0.97;;;0.97;;
7573;SDS011;3828;48.922;9.116;2023-08-07T02:30:01;1.10;;;1.10;;
7573;SDS011;3828;48.922;9.116;2023-08-07T02:32:28;1.13;;;1.13;;
7573;SDS011;3828;48.922;9.116;2023-08-07T02:34:55;1.00;;;1.00;;
7573;SDS011;3828;48.922;9.116;2023-08-07T02:37:23;1.13;;;1.13;;
7573;SDS011;3828;48.922;9.116;2023-08-07T02:39:52;1.20;;;1.20;;
7573;SDS011;3828;48.922;9.116;2023-08-07T02:42:20;1.00;;;1.00;;
7573;SDS011;3828;48.922;9.116;2023-08-07T02:44:46;1.10;;;1.10;;
7573;SDS011;3828;48.922;9.116;2023-08-07T02:47:15;0.93;;;0.93;;
7573;SDS011;3828;48.922;9.116;2023-08-07T02:49:42;1.40;;;1.40;;
7573;SDS011;3828;48.922;9.116;2023-08-07T02:52:09;0.90;;;0.90;;
7573;SDS011;3828;48.922;9.116;2023-08-07T02:54:36;1.17;;;1.17;;
7573;SDS011;3828;48.922;9.116;2023-08-07T02:57:03;1.10;;;1.10;;
7573;SDS011;3828;48.922;9.116;2023-08-07T02:59:30;1.13;;;1.13;;
7573;SDS011;3828;48.922;9.116;2023-08-07T03:01:57;1.10;;;1.10;;
7573;SDS011;3828;48.922;9.116;2023-08-07T03:04:26;1.20;;;1.20;;
7573;SDS011;3828;48.922;9.116;2023-08-07T03:06:52;1.10;;;1.10;;
7573;SDS011;3828;48.922;9.116;2023-08-07T03:09:21;1.00;;;1.00;;
7573;SDS011;3828;48.922;9.116;2023-08-07T03:11:48;1.00;;;1.00;;
7573;SDS011;3828;48.922;9.116;2023-08-07T03:14:15;1.00;;;1.00;;
7573;SDS011;3828;48.922;9.116;2023-08-07T03:16:42;1.13;;;1.13;;
7573;SDS011;3828;48.922;9.116;2023-08-07T03:19:09;1.10;;;1.10;;
7573;SDS011;3828;48.922;9.116;2023-08-07T03:21:37;1.10;;;1.10;;
7573;SDS011;3828;48.922;9.116;2023-08-07T03:24:04;1.00;;;1.00;;
7573;SDS011;3828;48.922;9.116;2023-08-07T03:26:32;1.00;;;1.00;;
7573;SDS011;3828;48.922;9.116;2023-08-07T03:29:01;0.90;;;0.90;;
7573;SDS011;3828;48.922;9.116;2023-08-07T03:31:28;1.17;;;1.17;;
7573;SDS011;3828;48.922;9.116;2023-08-07T03:34:02;0.93;;;0.93;;
7573;SDS011;3828;48.922;9.116;2023-08-07T03:36:28;1.10;;;1.10;;
7573;SDS011;3828;48.922;9.116;2023-08-07T03:38:57;1.00;;;1.00;;
7573;SDS011;3828;48.922;9.116;2023-08-07T03:41:24;0.90;;;0.90;;
7573;SDS011;3828;48.922;9.116;2023-08-07T03:43:59;0.90;;;0.90;;
7573;SDS011;3828;48.922;9.116;2023-08-07T03:46:26;0.90;;;0.90;;
7573;SDS011;3828;48.922;9.116;2023-08-07T03:48:53;1.00;;;1.00;;
7573;SDS011;3828;48.922;9.116;2023-08-07T03:51:20;1.00;;;1.00;;
7573;SDS011;3828;48.922;9.116;2023-08-07T03:53:47;1.00;;;1.00;;
7573;SDS011;3828;48.922;9.116;2023-08-07T03:56:18;0.90;;;0.90;;
7573;SDS011;3828;48.922;9.116;2023-08-07T03:58:47;1.30;;;1.30;;
7573;SDS011;3828;48.922;9.116;2023-08-07T04:01:15;1.10;;;1.10;;
7573;SDS011;3828;48.922;9.116;2023-08-07T04:03:42;1.00;;;1.00;;
7573;SDS011;3828;48.922;9.116;2023-08-07T04:06:09;1.00;;;1.00;;
7573;SDS011;3828;48.922;9.116;2023-08-07T04:08:40;1.00;;;1.00;;
7573;SDS011;3828;48.922;9.116;2023-08-07T04:11:07;0.97;;;0.97;;
7573;SDS011;3828;48.922;9.116;2023-08-07T04:13:37;1.20;;;1.20;;
7573;SDS011;3828;48.922;9.116;2023-08-07T04:16:04;0.90;;;0.90;;
7573;SDS011;3828;48.922;9.116;2023-08-07T04:18:31;0.90;;;0.90;;
7573;SDS011;3828;48.922;9.116;2023-08-07T04:20:58;1.00;;;1.00;;
7573;SDS011;3828;48.922;9.116;2023-08-07T04:23:26;1.00;;;1.00;;
7573;SDS011;3828;48.922;9.116;2023-08-07T04:25:53;1.17;;;1.17;;
7573;SDS011;3828;48.922;9.116;2023-08-07T04:28:20;1.00;;;1.00;;
7573;SDS011;3828;48.922;9.116;2023-08-07T04:30:50;1.27;;;1.27;;
7573;SDS011;3828;48.922;9.116;2023-08-07T04:33:18;1.00;;;1.00;;
7573;SDS011;3828;48.922;9.116;2023-08-07T04:35:45;1.03;;;1.03;;
7573;SDS011;3828;48.922;9.116;2023-08-07T04:38:12;1.00;;;1.00;;
7573;SDS011;3828;48.922;9.116;2023-08-07T04:40:43;1.10;;;1.10;;
7573;SDS011;3828;48.922;9.116;2023-08-07T04:43:11;0.90;;;0.90;;
7573;SDS011;3828;48.922;9.116;2023-08-07T04:45:38;1.00;;;1.00;;
7573;SDS011;3828;48.922;9.116;2023-08-07T04:48:06;1.13;;;1.13;;
7573;SDS011;3828;48.922;9.116;2023-08-07T04:50:33;1.00;;;1.00;;
7573;SDS011;3828;48.922;9.116;2023-08-07T04:53:01;1.00;;;1.00;;
7573;SDS011;3828;48.922;9.116;2023-08-07T04:55:28;1.00;;;1.00;;
7573;SDS011;3828;48.922;9.116;2023-08-07T04:57:55;0.97;;;0.97;;
7573;SDS011;3828;48.922;9.116;2023-08-07T05:00:22;1.30;;;1.30;;
7573;SDS011;3828;48.922;9.116;2023-08-07T05:02:50;1.00;;;1.00;;
7573;SDS011;3828;48.922;9.116;2023-08-07T05:05:18;1.00;;;1.00;;
7573;SDS011;3828;48.922;9.116;2023-08-07T05:07:46;1.00;;;1.00;;
7573;SDS011;3828;48.922;9.116;2023-08-07T05:10:13;1.00;;;1.00;;
7573;SDS011;3828;48.922;9.116;2023-08-07T05:12:40;1.00;;;1.00;;
7573;SDS011;3828;48.922;9.116;2023-08-07T05:15:08;1.00;;;1.00;;
7573;SDS011;3828;48.922;9.116;2023-08-07T05:17:35;1.00;;;1.00;;
7573;SDS011;3828;48.922;9.116;2023-08-07T05:20:03;1.00;;;1.00;;
7573;SDS011;3828;48.922;9.116;2023-08-07T05:22:32;1.00;;;1.00;;
7573;SDS011;3828;48.922;9.116;2023-08-07T05:24:59;1.10;;;1.10;;
7573;SDS011;3828;48.922;9.116;2023-08-07T05:27:27;1.00;;;1.00;;
7573;SDS011;3828;48.922;9.116;2023-08-07T05:29:54;1.00;;;1.00;;
7573;SDS011;3828;48.922;9.116;2023-08-07T05:32:21;1.00;;;1.00;;
7573;SDS011;3828;48.922;9.116;2023-08-07T05:34:48;1.00;;;1.00;;
7573;SDS011;3828;48.922;9.116;2023-08-07T05:37:16;1.03;;;1.03;;
7573;SDS011;3828;48.922;9.116;2023-08-07T05:39:44;1.00;;;1.00;;
7573;SDS011;3828;48.922;9.116;2023-08-07T05:42:12;1.20;;;1.20;;
7573;SDS011;3828;48.922;9.116;2023-08-07T05:44:39;1.00;;;1.00;;
7573;SDS011;3828;48.922;9.116;2023-08-07T05:47:07;0.90;;;0.90;;
7573;SDS011;3828;48.922;9.116;2023-08-07T05:49:34;0.90;;;0.90;;
7573;SDS011;3828;48.922;9.116;2023-08-07T05:52:01;1.00;;;1.00;;
7573;SDS011;3828;48.922;9.116;2023-08-07T05:54:28;0.80;;;0.80;;
7573;SDS011;3828;48.922;9.116;2023-08-07T05:56:57;1.10;;;1.10;;
7573;SDS011;3828;48.922;9.116;2023-08-07T05:59:24;0.83;;;0.83;;
7573;SDS011;3828;48.922;9.116;2023-08-07T06:01:51;1.20;;;1.20;;
7573;SDS011;3828;48.922;9.116;2023-08-07T06:04:18;0.87;;;0.87;;
7573;SDS011;3828;48.922;9.116;2023-08-07T06:06:46;1.10;;;1.10;;
7573;SDS011;3828;48.922;9.116;2023-08-07T06:09:13;1.13;;;1.13;;
7573;SDS011;3828;48.922;9.116;2023-08-07T06:11:41;1.00;;;1.00;;
7573;SDS011;3828;48.922;9.116;2023-08-07T06:14:09;0.90;;;0.90;;
7573;SDS011;3828;48.922;9.116;2023-08-07T06:16:36;0.90;;;0.90;;
7573;SDS011;3828;48.922;9.116;2023-08-07T06:19:03;0.80;;;0.80;;
7573;SDS011;3828;48.922;9.116;2023-08-07T06:21:30;1.00;;;1.00;;
7573;SDS011;3828;48.922;9.116;2023-08-07T06:23:58;0.93;;;0.93;;
7573;SDS011;3828;48.922;9.116;2023-08-07T06:26:26;1.00;;;1.00;;
7573;SDS011;3828;48.922;9.116;2023-08-07T06:28:53;1.00;;;1.00;;
7573;SDS011;3828;48.922;9.116;2023-08-07T06:31:22;0.90;;;0.90;;
7573;SDS011;3828;48.922;9.116;2023-08-07T06:33:49;0.90;;;0.90;;
7573;SDS011;3828;48.922;9.116;2023-08-07T06:36:16;0.90;;;0.90;;
7573;SDS011;3828;48.922;9.116;2023-08-07T06:38:43;0.90;;;0.90;;
7573;SDS011;3828;48.922;9.116;2023-08-07T06:41:10;0.90;;;0.90;;
7573;SDS011;3828;48.922;9.116;2023-08-07T06:43:38;0.93;;;0.93;;
7573;SDS011;3828;48.922;9.116;2023-08-07T06:46:06;1.10;;;1.10;;
7573;SDS011;3828;48.922;9.116;2023-08-07T06:48:37;0.90;;;0.90;;
7573;SDS011;3828;48.922;9.116;2023-08-07T06:51:04;1.00;;;1.00;;
7573;SDS011;3828;48.922;9.116;2023-08-07T06:53:31;0.97;;;0.97;;
7573;SDS011;3828;48.922;9.116;2023-08-07T06:55:58;0.97;;;0.97;;
7573;SDS011;3828;48.922;9.116;2023-08-07T06:58:25;1.03;;;1.03;;
7573;SDS011;3828;48.922;9.116;2023-08-07T07:00:52;0.80;;;0.80;;
7573;SDS011;3828;48.922;9.116;2023-08-07T07:03:20;1.17;;;1.17;;
7573;SDS011;3828;48.922;9.116;2023-08-07T07:05:49;0.90;;;0.90;;
7573;SDS011;3828;48.922;9.116;2023-08-07T07:08:16;1.30;;;1.30;;
7573;SDS011;3828;48.922;9.116;2023-08-07T07:10:43;0.90;;;0.90;;
7573;SDS011;3828;48.922;9.116;2023-08-07T07:13:10;1.10;;;1.10;;
7573;SDS011;3828;48.922;9.116;2023-08-07T07:15:37;0.80;;;0.80;;
7573;SDS011;3828;48.922;9.116;2023-08-07T07:18:04;0.90;;;0.90;;
7573;SDS011;3828;48.922;9.116;2023-08-07T07:20:31;1.20;;;1.20;;
7573;SDS011;3828;48.922;9.116;2023-08-07T07:23:00;0.90;;;0.90;;
7573;SDS011;3828;48.922;9.116;2023-08-07T07:25:27;0.90;;;0.90;;
7573;SDS011;3828;48.922;9.116;2023-08-07T07:27:54;1.00;;;1.00;;
7573;SDS011;3828;48.922;9.116;2023-08-07T07:30:21;1.10;;;1.10;;
7573;SDS011;3828;48.922;9.116;2023-08-07T07:32:49;1.20;;;1.20;;
7573;SDS011;3828;48.922;9.116;2023-08-07T07:35:16;0.90;;;0.90;;
7573;SDS011;3828;48.922;9.116;2023-08-07T07:37:43;0.90;;;0.90;;
7573;SDS011;3828;48.922;9.116;2023-08-07T07:40:12;1.10;;;1.10;;
7573;SDS011;3828;48.922;9.116;2023-08-07T07:42:39;0.93;;;0.93;;
7573;SDS011;3828;48.922;9.116;2023-08-07T07:45:07;0.97;;;0.97;;
7573;SDS011;3828;48.922;9.116;2023-08-07T07:47:34;1.03;;;1.03;;
7573;SDS011;3828;48.922;9.116;2023-08-07T07:50:05;0.90;;;0.90;;
7573;SDS011;3828;48.922;9.116;2023-08-07T07:52:33;0.90;;;0.90;;
7573;SDS011;3828;48.922;9.116;2023-08-07T07:55:00;0.90;;;0.90;;
7573;SDS011;3828;48.922;9.116;2023-08-07T07:57:29;0.87;;;0.87;;
7573;SDS011;3828;48.922;9.116;2023-08-07T07:59:56;0.80;;;0.80;;
7573;SDS011;3828;48.922;9.116;2023-08-07T08:02:23;0.90;;;0.90;;
7573;SDS011;3828;48.922;9.116;2023-08-07T08:04:51;0.80;;;0.80;;
7573;SDS011;3828;48.922;9.116;2023-08-07T08:07:18;0.80;;;0.80;;
7573;SDS011;3828;48.922;9.116;2023-08-07T08:09:45;0.80;;;0.80;;
7573;SDS011;3828;48.922;9.116;2023-08-07T08:12:13;0.73;;;0.73;;
7573;SDS011;3828;48.922;9.116;2023-08-07T08:14:41;1.00;;;1.00;;
7573;SDS011;3828;48.922;9.116;2023-08-07T08:17:08;0.80;;;0.80;;
7573;SDS011;3828;48.922;9.116;2023-08-07T08:19:36;1.23;;;1.23;;
7573;SDS011;3828;48.922;9.116;2023-08-07T08:22:03;1.10;;;1.10;;
7573;SDS011;3828;48.922;9.116;2023-08-07T08:24:30;1.00;;;1.00;;
7573;SDS011;3828;48.922;9.116;2023-08-07T08:26:58;0.87;;;0.87;;
7573;SDS011;3828;48.922;9.116;2023-08-07T08:29:25;0.90;;;0.90;;
7573;SDS011;3828;48.922;9.116;2023-08-07T08:31:54;0.90;;;0.90;;
7573;SDS011;3828;48.922;9.116;2023-08-07T08:34:21;0.90;;;0.90;;
7573;SDS011;3828;48.922;9.116;2023-08-07T08:36:48;0.80;;;0.80;;
7573;SDS011;3828;48.922;9.116;2023-08-07T08:39:16;0.80;;;0.80;;
7573;SDS011;3828;48.922;9.116;2023-08-07T08:41:43;0.80;;;0.80;;
7573;SDS011;3828;48.922;9.116;2023-08-07T08:44:13;1.00;;;1.00;;
7573;SDS011;3828;48.922;9.116;2023-08-07T08:46:40;0.80;;;0.80;;
7573;SDS011;3828;48.922;9.116;2023-08-07T08:49:10;1.00;;;1.00;;
7573;SDS011;3828;48.922;9.116;2023-08-07T08:51:38;0.90;;;0.90;;
7573;SDS011;3828;48.922;9.116;2023-08-07T08:54:09;0.90;;;0.90;;
7573;SDS011;3828;48.922;9.116;2023-08-07T08:56:36;0.80;;;0.80;;
7573;SDS011;3828;48.922;9.116;2023-08-07T08:59:04;0.80;;;0.80;;
7573;SDS011;3828;48.922;9.116;2023-08-07T09:01:31;0.70;;;0.70;;
7573;SDS011;3828;48.922;9.116;2023-08-07T09:03:58;0.80;;;0.80;;
7573;SDS011;3828;48.922;9.116;2023-08-07T09:06:27;0.80;;;0.80;;
7573;SDS011;3828;48.922;9.116;2023-08-07T09:08:56;0.80;;;0.80;;
7573;SDS011;3828;48.922;9.116;2023-08-07T09:11:24;0.90;;;0.90;;
7573;SDS011;3828;48.922;9.116;2023-08-07T09:13:52;0.80;;;0.80;;
7573;SDS011;3828;48.922;9.116;2023-08-07T09:16:21;0.80;;;0.80;;
7573;SDS011;3828;48.922;9.116;2023-08-07T09:18:50;0.80;;;0.80;;
7573;SDS011;3828;48.922;9.116;2023-08-07T09:21:19;0.80;;;0.80;;
7573;SDS011;3828;48.922;9.116;2023-08-07T09:23:48;0.80;;;0.80;;
7573;SDS011;3828;48.922;9.116;2023-08-07T09:26:15;0.83;;;0.83;;
7573;SDS011;3828;48.922;9.116;2023-08-07T09:28:47;0.70;;;0.70;;
7573;SDS011;3828;48.922;9.116;2023-08-07T09:31:15;0.90;;;0.90;;
7573;SDS011;3828;48.922;9.116;2023-08-07T09:33:42;0.80;;;0.80;;
7573;SDS011;3828;48.922;9.116;2023-08-07T09:36:09;0.70;;;0.70;;
7573;SDS011;3828;48.922;9.116;2023-08-07T09:38:38;1.07;;;1.07;;
7573;SDS011;3828;48.922;9.116;2023-08-07T09:41:06;0.83;;;0.83;;
7573;SDS011;3828;48.922;9.116;2023-08-07T09:43:33;0.87;;;0.87;;
7573;SDS011;3828;48.922;9.116;2023-08-07T09:46:03;0.80;;;0.80;;
7573;SDS011;3828;48.922;9.116;2023-08-07T09:48:31;0.70;;;0.70;;
7573;SDS011;3828;48.922;9.116;2023-08-07T09:51:00;0.80;;;0.80;;
7573;SDS011;3828;48.922;9.116;2023-08-07T09:53:29;0.90;;;0.90;;
7573;SDS011;3828;48.922;9.116;2023-08-07T09:55:56;0.77;;;0.77;;
7573;SDS011;3828;48.922;9.116;2023-08-07T09:58:25;0.70;;;0.70;;
7573;SDS011;3828;48.922;9.116;2023-08-07T10:00:54;0.70;;;0.70;;
7573;SDS011;3828;48.922;9.116;2023-08-07T10:03:24;0.70;;;0.70;;
7573;SDS011;3828;48.922;9.116;2023-08-07T10:05:51;0.60;;;0.60;;
7573;SDS011;3828;48.922;9.116;2023-08-07T10:08:19;0.70;;;0.70;;
7573;SDS011;3828;48.922;9.116;2023-08-07T10:10:47;0.67;;;0.67;;
7573;SDS011;3828;48.922;9.116;2023-08-07T10:13:14;0.90;;;0.90;;
7573;SDS011;3828;48.922;9.116;2023-08-07T10:15:43;0.70;;;0.70;;
7573;SDS011;3828;48.922;9.116;2023-08-07T10:18:10;0.77;;;0.77;;
7573;SDS011;3828;48.922;9.116;2023-08-07T10:20:37;0.70;;;0.70;;
7573;SDS011;3828;48.922;9.116;2023-08-07T10:23:07;1.00;;;1.00;;
7573;SDS011;3828;48.922;9.116;2023-08-07T10:25:35;0.70;;;0.70;;
7573;SDS011;3828;48.922;9.116;2023-08-07T10:28:06;0.90;;;0.90;;
7573;SDS011;3828;48.922;9.116;2023-08-07T10:30:36;0.80;;;0.80;;
7573;SDS011;3828;48.922;9.116;2023-08-07T10:33:05;1.00;;;1.00;;
7573;SDS011;3828;48.922;9.116;2023-08-07T10:35:33;0.80;;;0.80;;
7573;SDS011;3828;48.922;9.116;2023-08-07T10:38:07;0.87;;;0.87;;
7573;SDS011;3828;48.922;9.116;2023-08-07T10:40:34;0.70;;;0.70;;
7573;SDS011;3828;48.922;9.116;2023-08-07T10:43:26;0.80;;;0.80;;
7573;SDS011;3828;48.922;9.116;2023-08-07T10:45:53;0.80;;;0.80;;
7573;SDS011;3828;48.922;9.116;2023-08-07T10:48:21;0.80;;;0.80;;
7573;SDS011;3828;48.922;9.116;2023-08-07T10:50:49;0.80;;;0.80;;
7573;SDS011;3828;48.922;9.116;2023-08-07T10:53:21;0.93;;;0.93;;
7573;SDS011;3828;48.922;9.116;2023-08-07T10:56:02;1.00;;;1.00;;
7573;SDS011;3828;48.922;9.116;2023-08-07T10:58:47;0.70;;;0.70;;
7573;SDS011;3828;48.922;9.116;2023-08-07T11:01:27;0.77;;;0.77;;
7573;SDS011;3828;48.922;9.116;2023-08-07T11:04:16;0.80;;;0.80;;
7573;SDS011;3828;48.922;9.116;2023-08-07T11:06:47;0.80;;;0.80;;
7573;SDS011;3828;48.922;9.116;2023-08-07T11:09:18;0.80;;;0.80;;
7573;SDS011;3828;48.922;9.116;2023-08-07T11:11:49;0.80;;;0.80;;
7573;SDS011;3828;48.922;9.116;2023-08-07T11:14:17;0.70;;;0.70;;
7573;SDS011;3828;48.922;9.116;2023-08-07T11:16:45;0.70;;;0.70;;
7573;SDS011;3828;48.922;9.116;2023-08-07T11:19:13;0.70;;;0.70;;
7573;SDS011;3828;48.922;9.116;2023-08-07T11:21:41;0.70;;;0.70;;
7573;SDS011;3828;48.922;9.116;2023-08-07T11:24:13;0.77;;;0.77;;
7573;SDS011;3828;48.922;9.116;2023-08-07T11:26:44;0.73;;;0.73;;
7573;SDS011;3828;48.922;9.116;2023-08-07T11:29:16;0.73;;;0.73;;
7573;SDS011;3828;48.922;9.116;2023-08-07T11:31:44;0.70;;;0.70;;
7573;SDS011;3828;48.922;9.116;2023-08-07T11:34:11;0.80;;;0.80;;
7573;SDS011;3828;48.922;9.116;2023-08-07T11:36:40;0.77;;;0.77;;
7573;SDS011;3828;48.922;9.116;2023-08-07T11:39:07;0.83;;;0.83;;
7573;SDS011;3828;48.922;9.116;2023-08-07T11:41:34;0.70;;;0.70;;
7573;SDS011;3828;48.922;9.116;2023-08-07T11:44:01;0.77;;;0.77;;
7573;SDS011;3828;48.922;9.116;2023-08-07T11:46:30;0.80;;;0.80;;
7573;SDS011;3828;48.922;9.116;2023-08-07T11:48:57;0.60;;;0.60;;
7573;SDS011;3828;48.922;9.116;2023-08-07T11:51:24;0.73;;;0.73;;
7573;SDS011;3828;48.922;9.116;2023-08-07T11:53:51;0.80;;;0.80;;
7573;SDS011;3828;48.922;9.116;2023-08-07T11:56:21;0.70;;;0.70;;
7573;SDS011;3828;48.922;9.116;2023-08-07T11:58:50;0.80;;;0.80;;
7573;SDS011;3828;48.922;9.116;2023-08-07T12:01:19;0.90;;;0.90;;
7573;SDS011;3828;48.922;9.116;2023-08-07T12:03:52;0.70;;;0.70;;
7573;SDS011;3828;48.922;9.116;2023-08-07T12:06:20;0.60;;;0.60;;
7573;SDS011;3828;48.922;9.116;2023-08-07T12:08:48;0.77;;;0.77;;
7573;SDS011;3828;48.922;9.116;2023-08-07T12:11:17;0.60;;;0.60;;
7573;SDS011;3828;48.922;9.116;2023-08-07T12:13:46;0.70;;;0.70;;
7573;SDS011;3828;48.922;9.116;2023-08-07T12:16:13;0.90;;;0.90;;
7573;SDS011;3828;48.922;9.116;2023-08-07T12:18:43;0.60;;;0.60;;
7573;SDS011;3828;48.922;9.116;2023-08-07T12:21:13;0.70;;;0.70;;
7573;SDS011;3828;48.922;9.116;2023-08-07T12:23:41;0.50;;;0.50;;
7573;SDS011;3828;48.922;9.116;2023-08-07T12:26:08;0.70;;;0.70;;
7573;SDS011;3828;48.922;9.116;2023-08-07T12:28:35;0.50;;;0.50;;
7573;SDS011;3828;48.922;9.116;2023-08-07T12:31:03;0.70;;;0.70;;
7573;SDS011;3828;48.922;9.116;2023-08-07T12:33:30;0.60;;;0.60;;
7573;SDS011;3828;48.922;9.116;2023-08-07T12:35:57;0.67;;;0.67;;
7573;SDS011;3828;48.922;9.116;2023-08-07T12:38:28;0.60;;;0.60;;
7573;SDS011;3828;48.922;9.116;2023-08-07T12:40:55;0.77;;;0.77;;
7573;SDS011;3828;48.922;9.116;2023-08-07T12:43:22;0.60;;;0.60;;
7573;SDS011;3828;48.922;9.116;2023-08-07T12:45:49;0.60;;;0.60;;
7573;SDS011;3828;48.922;9.116;2023-08-07T12:48:18;0.60;;;0.60;;
7573;SDS011;3828;48.922;9.116;2023-08-07T12:50:45;0.70;;;0.70;;
7573;SDS011;3828;48.922;9.116;2023-08-07T12:53:12;0.70;;;0.70;;
7573;SDS011;3828;48.922;9.116;2023-08-07T12:55:40;0.60;;;0.60;;
7573;SDS011;3828;48.922;9.116;2023-08-07T12:58:07;0.67;;;0.67;;
7573;SDS011;3828;48.922;9.116;2023-08-07T13:00:34;0.80;;;0.80;;
7573;SDS011;3828;48.922;9.116;2023-08-07T13:03:01;0.60;;;0.60;;
7573;SDS011;3828;48.922;9.116;2023-08-07T13:05:28;0.60;;;0.60;;
7573;SDS011;3828;48.922;9.116;2023-08-07T13:07:56;0.60;;;0.60;;
7573;SDS011;3828;48.922;9.116;2023-08-07T13:10:23;0.60;;;0.60;;
7573;SDS011;3828;48.922;9.116;2023-08-07T13:12:54;0.80;;;0.80;;
7573;SDS011;3828;48.922;9.116;2023-08-07T13:15:21;0.80;;;0.80;;
7573;SDS011;3828;48.922;9.116;2023-08-07T13:17:48;0.60;;;0.60;;
7573;SDS011;3828;48.922;9.116;2023-08-07T13:20:15;0.60;;;0.60;;
7573;SDS011;3828;48.922;9.116;2023-08-07T13:22:43;0.60;;;0.60;;
7573;SDS011;3828;48.922;9.116;2023-08-07T13:25:10;0.60;;;0.60;;
7573;SDS011;3828;48.922;9.116;2023-08-07T13:27:38;0.50;;;0.50;;
7573;SDS011;3828;48.922;9.116;2023-08-07T13:30:07;0.60;;;0.60;;
7573;SDS011;3828;48.922;9.116;2023-08-07T13:32:34;0.50;;;0.50;;
7573;SDS011;3828;48.922;9.116;2023-08-07T13:35:02;0.70;;;0.70;;
7573;SDS011;3828;48.922;9.116;2023-08-07T13:37:30;0.50;;;0.50;;
7573;SDS011;3828;48.922;9.116;2023-08-07T13:39:59;0.50;;;0.50;;
7573;SDS011;3828;48.922;9.116;2023-08-07T13:42:28;0.50;;;0.50;;
7573;SDS011;3828;48.922;9.116;2023-08-07T13:44:55;0.57;;;0.57;;
7573;SDS011;3828;48.922;9.116;2023-08-07T13:47:24;0.60;;;0.60;;
7573;SDS011;3828;48.922;9.116;2023-08-07T13:49:51;0.80;;;0.80;;
7573;SDS011;3828;48.922;9.116;2023-08-07T13:52:19;0.60;;;0.60;;
7573;SDS011;3828;48.922;9.116;2023-08-07T13:54:47;0.50;;;0.50;;
7573;SDS011;3828;48.922;9.116;2023-08-07T13:57:13;0.50;;;0.50;;
7573;SDS011;3828;48.922;9.116;2023-08-07T13:59:40;0.50;;;0.50;;
7573;SDS011;3828;48.922;9.116;2023-08-07T14:02:08;0.60;;;0.60;;
7573;SDS011;3828;48.922;9.116;2023-08-07T14:04:36;0.40;;;0.40;;
7573;SDS011;3828;48.922;9.116;2023-08-07T14:07:03;0.60;;;0.60;;
7573;SDS011;3828;48.922;9.116;2023-08-07T14:09:32;0.50;;;0.50;;
7573;SDS011;3828;48.922;9.116;2023-08-07T14:11:59;0.50;;;0.50;;
7573;SDS011;3828;48.922;9.116;2023-08-07T14:14:26;0.50;;;0.50;;
7573;SDS011;3828;48.922;9.116;2023-08-07T14:16:53;0.50;;;0.50;;
7573;SDS011;3828;48.922;9.116;2023-08-07T14:19:25;0.80;;;0.80;;
7573;SDS011;3828;48.922;9.116;2023-08-07T14:21:53;0.60;;;0.60;;
7573;SDS011;3828;48.922;9.116;2023-08-07T14:24:20;0.50;;;0.50;;
7573;SDS011;3828;48.922;9.116;2023-08-07T14:26:47;0.53;;;0.53;;
7573;SDS011;3828;48.922;9.116;2023-08-07T14:29:15;0.60;;;0.60;;
7573;SDS011;3828;48.922;9.116;2023-08-07T14:31:41;0.50;;;0.50;;
7573;SDS011;3828;48.922;9.116;2023-08-07T14:34:09;0.60;;;0.60;;
7573;SDS011;3828;48.922;9.116;2023-08-07T14:36:36;0.50;;;0.50;;
7573;SDS011;3828;48.922;9.116;2023-08-07T14:39:04;0.50;;;0.50;;
7573;SDS011;3828;48.922;9.116;2023-08-07T14:41:31;1.00;;;1.00;;
7573;SDS011;3828;48.922;9.116;2023-08-07T14:43:58;0.50;;;0.50;;
7573;SDS011;3828;48.922;9.116;2023-08-07T14:46:25;0.43;;;0.43;;
7573;SDS011;3828;48.922;9.116;2023-08-07T14:48:52;0.50;;;0.50;;
7573;SDS011;3828;48.922;9.116;2023-08-07T14:51:19;0.67;;;0.67;;
7573;SDS011;3828;48.922;9.116;2023-08-07T14:53:46;0.60;;;0.60;;
7573;SDS011;3828;48.922;9.116;2023-08-07T14:56:15;0.50;;;0.50;;
7573;SDS011;3828;48.922;9.116;2023-08-07T14:58:42;0.60;;;0.60;;
7573;SDS011;3828;48.922;9.116;2023-08-07T15:01:09;0.80;;;0.80;;
7573;SDS011;3828;48.922;9.116;2023-08-07T15:03:36;0.70;;;0.70;;
7573;SDS011;3828;48.922;9.116;2023-08-07T15:06:03;0.90;;;0.90;;
7573;SDS011;3828;48.922;9.116;2023-08-07T15:08:30;0.60;;;0.60;;
7573;SDS011;3828;48.922;9.116;2023-08-07T15:10:58;0.60;;;0.60;;
7573;SDS011;3828;48.922;9.116;2023-08-07T15:13:27;0.77;;;0.77;;
7573;SDS011;3828;48.922;9.116;2023-08-07T15:15:54;0.70;;;0.70;;
7573;SDS011;3828;48.922;9.116;2023-08-07T15:18:21;0.70;;;0.70;;
7573;SDS011;3828;48.922;9.116;2023-08-07T15:20:49;0.60;;;0.60;;